createdAt,value
2022-09-26T00:00:47.251Z,83.00
2022-09-26T00:02:47.217Z,83.00
2022-09-26T00:04:47.104Z,83.00
2022-09-26T00:06:47.117Z,83.00
2022-09-26T00:08:47.073Z,83.00
2022-09-26T00:10:47.159Z,83.00
2022-09-26T00:12:47.135Z,83.00
2022-09-26T00:14:47.090Z,83.00
2022-09-26T00:16:47.221Z,83.00
2022-09-26T00:18:47.092Z,83.00
2022-09-26T00:20:47.203Z,83.00
2022-09-26T00:22:47.189Z,83.00
2022-09-26T00:24:47.149Z,83.00
2022-09-26T00:26:49.700Z,83.00
2022-09-26T00:28:47.181Z,83.00
2022-09-26T00:30:47.206Z,83.00
2022-09-26T00:33:17.101Z,83.00
2022-09-26T00:35:17.137Z,83.00
2022-09-26T00:37:17.273Z,83.00
2022-09-26T00:39:17.196Z,83.00
2022-09-26T00:41:17.150Z,83.00
2022-09-26T00:43:21.060Z,83.00
2022-09-26T00:45:17.160Z,83.00
2022-09-26T00:47:17.169Z,83.00
2022-09-26T00:49:17.186Z,83.00
2022-09-26T00:53:10.027Z,83.00
2022-09-26T00:55:10.031Z,83.00
2022-09-26T00:57:10.054Z,83.00
2022-09-26T00:59:10.067Z,83.00
2022-09-26T01:01:10.111Z,83.00
2022-09-26T01:03:10.052Z,83.00
2022-09-26T01:05:10.056Z,83.00
2022-09-26T01:07:10.029Z,83.00
2022-09-26T01:09:10.041Z,83.00
2022-09-26T01:11:13.625Z,83.00
2022-09-26T01:13:10.082Z,83.00
2022-09-26T01:15:10.051Z,83.00
2022-09-26T01:17:10.133Z,83.00
2022-09-26T01:19:10.043Z,83.00
2022-09-26T01:21:10.026Z,83.00
2022-09-26T01:23:10.186Z,83.00
2022-09-26T01:25:10.068Z,83.00
2022-09-26T01:27:10.089Z,83.00
2022-09-26T01:29:10.029Z,83.00
2022-09-26T01:31:10.181Z,83.00
2022-09-26T01:33:10.018Z,84.00
2022-09-26T01:35:10.058Z,84.00
2022-09-26T01:37:10.065Z,84.00
2022-09-26T01:39:10.074Z,84.00
2022-09-26T01:41:10.114Z,84.00
2022-09-26T01:43:10.029Z,84.00
2022-09-26T01:45:10.054Z,84.00
2022-09-26T01:47:10.039Z,84.00
2022-09-26T01:49:10.155Z,84.00
2022-09-26T01:51:10.074Z,84.00
2022-09-26T01:53:10.062Z,84.00
2022-09-26T01:55:10.248Z,84.00
2022-09-26T01:57:10.084Z,84.00
2022-09-26T02:01:40.227Z,84.00
2022-09-26T02:03:40.080Z,84.00
2022-09-26T02:05:40.067Z,84.00
2022-09-26T02:07:40.065Z,84.00
2022-09-26T02:09:40.076Z,84.00
2022-09-26T02:11:40.090Z,84.00
2022-09-26T02:13:40.082Z,83.00
2022-09-26T02:15:40.132Z,84.00
2022-09-26T02:17:40.048Z,84.00
2022-09-26T02:19:40.063Z,83.00
2022-09-26T02:21:40.079Z,83.00
2022-09-26T02:23:40.094Z,83.00
2022-09-26T02:25:40.075Z,83.00
2022-09-26T02:27:40.058Z,83.00
2022-09-26T02:29:40.108Z,83.00
2022-09-26T02:31:40.200Z,83.00
2022-09-26T02:33:40.070Z,83.00
2022-09-26T02:35:40.091Z,83.00
2022-09-26T02:37:40.093Z,83.00
2022-09-26T02:39:40.134Z,83.00
2022-09-26T02:41:40.119Z,83.00
2022-09-26T02:43:40.166Z,83.00
2022-09-26T02:45:40.145Z,83.00
2022-09-26T02:47:40.094Z,83.00
2022-09-26T02:49:40.265Z,83.00
2022-09-26T02:51:40.134Z,83.00
2022-09-26T02:53:40.115Z,83.00
2022-09-26T02:55:40.118Z,83.00
2022-09-26T02:57:40.101Z,83.00
2022-09-26T02:59:40.089Z,83.00
2022-09-26T03:01:41.734Z,83.00
2022-09-26T03:03:40.237Z,83.00
2022-09-26T03:05:40.122Z,83.00
2022-09-26T03:07:40.164Z,83.00
2022-09-26T03:09:40.119Z,83.00
2022-09-26T03:11:40.120Z,83.00
2022-09-26T03:13:40.105Z,83.00
2022-09-26T03:15:40.127Z,83.00
2022-09-26T03:17:40.093Z,83.00
2022-09-26T03:19:40.161Z,83.00
2022-09-26T03:21:40.134Z,83.00
2022-09-26T03:23:40.131Z,83.00
2022-09-26T03:25:40.127Z,83.00
2022-09-26T03:27:40.143Z,83.00
2022-09-26T03:29:40.179Z,83.00
2022-09-26T03:31:40.131Z,83.00
2022-09-26T03:33:40.764Z,83.00
2022-09-26T03:35:40.214Z,83.00
2022-09-26T03:37:40.116Z,83.00
2022-09-26T03:39:40.124Z,83.00
2022-09-26T03:41:40.139Z,83.00
2022-09-26T03:43:40.164Z,83.00
2022-09-26T03:45:40.223Z,83.00
2022-09-26T03:47:40.216Z,83.00
2022-09-26T03:49:40.127Z,83.00
2022-09-26T03:51:40.125Z,83.00
2022-09-26T03:53:40.131Z,83.00
2022-09-26T03:55:40.147Z,83.00
2022-09-26T03:58:10.157Z,83.00
2022-09-26T04:00:10.123Z,83.00
2022-09-26T04:02:10.198Z,83.00
2022-09-26T04:04:10.127Z,83.00
2022-09-26T04:06:10.147Z,83.00
2022-09-26T04:08:10.237Z,83.00
2022-09-26T04:10:10.174Z,83.00
2022-09-26T04:12:10.167Z,83.00
2022-09-26T04:14:10.162Z,83.00
2022-09-26T04:16:10.196Z,83.00
2022-09-26T04:18:10.146Z,83.00
2022-09-26T04:20:10.254Z,83.00
2022-09-26T04:22:10.139Z,83.00
2022-09-26T04:24:10.135Z,83.00
2022-09-26T04:26:10.164Z,83.00
2022-09-26T04:28:10.151Z,83.00
2022-09-26T04:30:10.185Z,83.00
2022-09-26T04:32:10.155Z,83.00
2022-09-26T04:34:10.171Z,83.00
2022-09-26T04:36:10.149Z,83.00
2022-09-26T04:38:10.378Z,83.00
2022-09-26T04:40:10.261Z,83.00
2022-09-26T04:42:10.148Z,83.00
2022-09-26T04:44:10.202Z,83.00
2022-09-26T04:46:10.248Z,83.00
2022-09-26T04:48:10.258Z,83.00
2022-09-26T04:50:10.238Z,83.00
2022-09-26T04:52:10.164Z,83.00
2022-09-26T04:54:10.264Z,83.00
2022-09-26T04:56:10.171Z,83.00
2022-09-26T04:58:10.187Z,83.00
2022-09-26T05:00:10.233Z,83.00
2022-09-26T05:02:10.275Z,83.00
2022-09-26T05:04:10.176Z,83.00
2022-09-26T05:06:13.874Z,83.00
2022-09-26T05:08:10.200Z,83.00
2022-09-26T05:10:10.193Z,83.00
2022-09-26T05:12:10.201Z,83.00
2022-09-26T05:14:10.206Z,83.00
2022-09-26T05:16:10.217Z,83.00
2022-09-26T05:18:10.206Z,83.00
2022-09-26T05:20:10.199Z,83.00
2022-09-26T05:22:10.258Z,83.00
2022-09-26T05:24:10.180Z,83.00
2022-09-26T05:26:10.177Z,83.00
2022-09-26T05:28:10.178Z,83.00
2022-09-26T05:30:10.200Z,83.00
2022-09-26T05:32:10.249Z,84.00
2022-09-26T05:34:15.458Z,84.00
2022-09-26T05:36:10.235Z,83.00
2022-09-26T05:38:10.214Z,84.00
2022-09-26T05:40:10.416Z,84.00
2022-09-26T05:42:10.195Z,84.00
2022-09-26T05:44:10.264Z,84.00
2022-09-26T05:46:10.207Z,84.00
2022-09-26T05:48:10.281Z,84.00
2022-09-26T05:50:10.271Z,84.00
2022-09-26T05:52:40.239Z,84.00
2022-09-26T05:54:40.241Z,84.00
2022-09-26T05:56:40.229Z,84.00
2022-09-26T05:58:40.240Z,84.00
2022-09-26T06:00:40.336Z,84.00
2022-09-26T06:02:40.270Z,84.00
2022-09-26T06:04:40.291Z,84.00
2022-09-26T06:06:40.311Z,84.00
2022-09-26T06:08:40.206Z,84.00
2022-09-26T06:10:40.209Z,84.00
2022-09-26T06:12:40.188Z,84.00
2022-09-26T06:14:40.252Z,84.00
2022-09-26T06:16:40.306Z,84.00
2022-09-26T06:18:40.268Z,84.00
2022-09-26T06:20:40.195Z,84.00
2022-09-26T06:22:40.236Z,84.00
2022-09-26T06:24:40.367Z,84.00
2022-09-26T06:26:40.228Z,84.00
2022-09-26T06:28:40.274Z,84.00
2022-09-26T06:30:40.271Z,84.00
2022-09-26T06:32:40.312Z,84.00
2022-09-26T06:34:40.219Z,84.00
2022-09-26T06:36:40.241Z,84.00
2022-09-26T06:38:40.309Z,84.00
2022-09-26T06:40:40.314Z,83.00
2022-09-26T06:42:40.284Z,83.00
2022-09-26T06:44:40.269Z,83.00
2022-09-26T06:46:40.298Z,83.00
2022-09-26T06:48:40.252Z,83.00
2022-09-26T06:50:40.301Z,83.00
2022-09-26T06:52:40.236Z,83.00
2022-09-26T06:54:40.254Z,83.00
2022-09-26T06:56:40.259Z,83.00
2022-09-26T06:58:40.231Z,83.00
2022-09-26T07:00:40.370Z,83.00
2022-09-26T07:02:40.292Z,83.00
2022-09-26T07:04:40.352Z,83.00
2022-09-26T07:06:40.261Z,83.00
2022-09-26T07:09:00.891Z,83.00
2022-09-26T07:10:40.321Z,83.00
2022-09-26T07:12:40.239Z,83.00
2022-09-26T07:14:40.428Z,83.00
2022-09-26T07:16:40.465Z,83.00
2022-09-26T07:18:40.334Z,83.00
2022-09-26T07:20:40.280Z,83.00
2022-09-26T07:22:40.330Z,83.00
2022-09-26T07:24:40.370Z,82.00
2022-09-26T07:26:40.344Z,82.00
2022-09-26T07:28:40.290Z,82.00
2022-09-26T07:30:40.325Z,82.00
2022-09-26T07:32:40.253Z,82.00
2022-09-26T07:34:40.321Z,82.00
2022-09-26T07:36:40.261Z,82.00
2022-09-26T07:38:40.269Z,82.00
2022-09-26T07:40:40.476Z,82.00
2022-09-26T07:42:40.387Z,82.00
2022-09-26T07:45:20.476Z,81.00
2022-09-26T07:46:40.405Z,80.00
2022-09-26T07:49:13.961Z,80.00
2022-09-26T07:51:10.336Z,80.00
2022-09-26T07:53:10.433Z,79.00
2022-09-26T07:55:10.333Z,79.00
2022-09-26T07:57:10.387Z,78.00
2022-09-26T07:59:10.455Z,77.00
2022-09-26T08:01:10.388Z,77.00
2022-09-26T08:05:10.348Z,77.00
2022-09-26T08:07:10.355Z,76.00
2022-09-26T08:11:10.432Z,75.00
2022-09-26T08:14:48.809Z,74.00
2022-09-26T08:16:48.830Z,74.00
2022-09-26T08:18:48.861Z,74.00
2022-09-26T08:20:48.832Z,75.00
2022-09-26T08:23:18.835Z,74.00
2022-09-26T08:25:18.817Z,74.00
2022-09-26T08:27:18.841Z,73.00
2022-09-26T08:29:18.869Z,73.00
2022-09-26T08:31:19.036Z,74.00
2022-09-26T08:33:18.867Z,73.00
2022-09-26T08:35:18.860Z,72.00
2022-09-26T08:37:18.840Z,72.00
2022-09-26T08:39:18.841Z,72.00
2022-09-26T08:41:18.826Z,72.00
2022-09-26T08:43:18.813Z,72.00
2022-09-26T08:45:18.844Z,70.00
2022-09-26T08:47:18.860Z,70.00
2022-09-26T08:49:18.856Z,71.00
2022-09-26T08:51:18.940Z,71.00
2022-09-26T08:53:18.820Z,71.00
2022-09-26T08:55:18.865Z,70.00
2022-09-26T08:57:18.870Z,70.00
2022-09-26T08:59:18.889Z,70.00
2022-09-26T09:01:18.922Z,69.00
2022-09-26T09:03:18.839Z,69.00
2022-09-26T09:05:18.869Z,70.00
2022-09-26T09:07:18.852Z,70.00
2022-09-26T09:09:18.873Z,70.00
2022-09-26T09:11:18.879Z,71.00
2022-09-26T09:13:18.851Z,71.00
2022-09-26T09:15:25.819Z,71.00
2022-09-26T09:17:18.928Z,71.00
2022-09-26T09:19:18.870Z,71.00
2022-09-26T09:21:18.889Z,70.00
2022-09-26T09:23:18.882Z,70.00
2022-09-26T09:25:18.869Z,70.00
2022-09-26T09:29:19.405Z,68.00
2022-09-26T09:31:18.931Z,68.00
2022-09-26T09:33:18.901Z,68.00
2022-09-26T09:35:18.927Z,68.00
2022-09-26T09:37:18.916Z,67.00
2022-09-26T09:39:20.185Z,68.00
2022-09-26T09:41:18.928Z,67.00
2022-09-26T09:43:18.899Z,67.00
2022-09-26T09:45:18.891Z,66.00
2022-09-26T09:47:18.922Z,66.00
2022-09-26T09:49:21.228Z,66.00
2022-09-26T09:51:18.926Z,65.00
2022-09-26T09:53:18.925Z,65.00
2022-09-26T09:55:18.899Z,64.00
2022-09-26T09:57:18.928Z,63.00
2022-09-26T09:59:18.876Z,63.00
2022-09-26T10:01:18.893Z,63.00
2022-09-26T10:03:18.986Z,63.00
2022-09-26T10:05:18.924Z,61.00
2022-09-26T10:07:18.912Z,62.00
2022-09-26T10:09:39.570Z,61.00
2022-09-26T10:11:18.891Z,61.00
2022-09-26T10:13:18.936Z,62.00
2022-09-26T10:15:18.919Z,62.00
2022-09-26T10:17:18.886Z,62.00
2022-09-26T10:19:18.894Z,62.00
2022-09-26T10:21:18.913Z,62.00
2022-09-26T10:23:48.927Z,63.00
2022-09-26T10:25:48.961Z,63.00
2022-09-26T10:27:48.948Z,63.00
2022-09-26T10:29:48.896Z,62.00
2022-09-26T10:31:48.997Z,63.00
2022-09-26T10:33:48.923Z,63.00
2022-09-26T10:35:48.905Z,63.00
2022-09-26T10:37:48.943Z,63.00
2022-09-26T10:39:48.937Z,62.00
2022-09-26T10:41:48.926Z,62.00
2022-09-26T10:43:48.928Z,62.00
2022-09-26T10:45:48.955Z,62.00
2022-09-26T10:47:48.944Z,60.00
2022-09-26T10:49:48.951Z,60.00
2022-09-26T10:51:48.925Z,60.00
2022-09-26T10:53:48.972Z,60.00
2022-09-26T10:55:48.915Z,60.00
2022-09-26T10:57:48.940Z,60.00
2022-09-26T10:59:48.965Z,60.00
2022-09-26T11:01:49.039Z,60.00
2022-09-26T11:03:49.130Z,60.00
2022-09-26T11:05:48.970Z,60.00
2022-09-26T11:07:48.928Z,60.00
2022-09-26T11:09:48.942Z,59.00
2022-09-26T11:11:48.951Z,59.00
2022-09-26T11:13:48.983Z,58.00
2022-09-26T11:15:48.996Z,59.00
2022-09-26T11:17:48.948Z,58.00
2022-09-26T11:19:53.813Z,58.00
2022-09-26T11:21:48.975Z,58.00
2022-09-26T11:23:49.013Z,57.00
2022-09-26T11:25:48.953Z,55.00
2022-09-26T11:27:49.012Z,55.00
2022-09-26T11:29:48.990Z,55.00
2022-09-26T11:31:48.956Z,55.00
2022-09-26T11:33:48.999Z,54.00
2022-09-26T11:35:48.983Z,54.00
2022-09-26T11:37:49.083Z,55.00
2022-09-26T11:39:48.976Z,55.00
2022-09-26T11:41:48.972Z,55.00
2022-09-26T11:43:49.008Z,55.00
2022-09-26T11:45:48.995Z,54.00
2022-09-26T11:47:49.097Z,53.00
2022-09-26T11:49:49.063Z,53.00
2022-09-26T11:51:49.150Z,51.00
2022-09-26T11:53:49.091Z,51.00
2022-09-26T11:55:48.994Z,52.00
2022-09-26T11:57:48.981Z,55.00
2022-09-26T11:59:49.078Z,55.00
2022-09-26T12:01:49.021Z,54.00
2022-09-26T12:03:49.136Z,55.00
2022-09-26T12:05:49.076Z,56.00
2022-09-26T12:07:49.067Z,58.00
2022-09-26T12:09:49.081Z,58.00
2022-09-26T12:11:49.125Z,55.00
2022-09-26T12:13:49.009Z,55.00
2022-09-26T12:15:49.024Z,55.00
2022-09-26T12:17:48.987Z,55.00
2022-09-26T12:19:49.055Z,57.00
2022-09-26T12:21:49.088Z,57.00
2022-09-26T12:23:49.263Z,57.00
2022-09-26T12:25:48.993Z,53.00
2022-09-26T12:28:19.110Z,53.00
2022-09-26T12:30:19.046Z,54.00
2022-09-26T12:32:19.045Z,55.00
2022-09-26T12:34:19.147Z,52.00
2022-09-26T12:36:19.101Z,51.00
2022-09-26T12:38:19.092Z,51.00
2022-09-26T12:40:19.252Z,52.00
2022-09-26T12:42:19.133Z,52.00
2022-09-26T12:44:19.097Z,51.00
2022-09-26T12:46:19.040Z,51.00
2022-09-26T12:48:19.088Z,50.00
2022-09-26T12:50:19.099Z,49.00
2022-09-26T12:52:21.546Z,52.00
2022-09-26T12:54:19.077Z,53.00
2022-09-26T12:56:19.139Z,53.00
2022-09-26T12:58:19.183Z,53.00
2022-09-26T13:00:19.048Z,55.00
2022-09-26T13:02:19.328Z,55.00
2022-09-26T13:04:19.308Z,56.00
2022-09-26T13:06:19.116Z,56.00
2022-09-26T13:08:19.177Z,54.00
2022-09-26T13:10:19.160Z,53.00
2022-09-26T13:12:19.152Z,53.00
2022-09-26T13:14:19.083Z,53.00
2022-09-26T13:16:19.090Z,53.00
2022-09-26T13:18:23.008Z,54.00
2022-09-26T13:20:19.132Z,53.00
2022-09-26T13:22:19.103Z,54.00
2022-09-26T13:24:19.111Z,54.00
2022-09-26T13:26:19.130Z,56.00
2022-09-26T13:28:19.178Z,56.00
2022-09-26T13:30:19.089Z,56.00
2022-09-26T13:32:19.206Z,56.00
2022-09-26T13:34:19.096Z,56.00
2022-09-26T13:36:19.097Z,54.00
2022-09-26T13:38:19.119Z,54.00
2022-09-26T13:40:19.206Z,54.00
2022-09-26T13:42:19.178Z,54.00
2022-09-26T13:44:19.260Z,55.00
2022-09-26T13:46:19.283Z,56.00
2022-09-26T13:48:19.088Z,56.00
2022-09-26T13:50:19.104Z,55.00
2022-09-26T13:52:20.130Z,55.00
2022-09-26T13:54:19.115Z,54.00
2022-09-26T13:56:19.141Z,54.00
2022-09-26T13:58:19.244Z,54.00
2022-09-26T14:00:19.300Z,55.00
2022-09-26T14:02:19.275Z,55.00
2022-09-26T14:04:19.228Z,56.00
2022-09-26T14:06:19.155Z,55.00
2022-09-26T14:08:19.323Z,56.00
2022-09-26T14:10:19.176Z,55.00
2022-09-26T14:12:20.246Z,55.00
2022-09-26T14:14:19.112Z,55.00
2022-09-26T14:16:19.353Z,56.00
2022-09-26T14:18:19.098Z,56.00
2022-09-26T14:20:19.366Z,56.00
2022-09-26T14:22:19.201Z,57.00
2022-09-26T14:24:19.259Z,57.00
2022-09-26T14:26:19.268Z,57.00
2022-09-26T14:28:49.267Z,57.00
2022-09-26T14:30:49.263Z,58.00
2022-09-26T14:32:49.209Z,59.00
2022-09-26T14:34:49.250Z,59.00
2022-09-26T14:36:49.152Z,60.00
2022-09-26T14:38:49.254Z,60.00
2022-09-26T14:40:49.240Z,60.00
2022-09-26T14:42:49.268Z,60.00
2022-09-26T14:44:49.760Z,61.00
2022-09-26T14:46:49.984Z,61.00
2022-09-26T14:48:49.185Z,61.00
2022-09-26T14:50:49.228Z,61.00
2022-09-26T14:52:50.225Z,61.00
2022-09-26T14:54:49.240Z,61.00
2022-09-26T14:56:49.358Z,61.00
2022-09-26T14:58:49.401Z,61.00
2022-09-26T15:00:49.300Z,61.00
2022-09-26T15:02:49.322Z,61.00
2022-09-26T15:04:49.232Z,59.00
2022-09-26T15:06:49.160Z,59.00
2022-09-26T15:08:49.424Z,59.00
2022-09-26T15:10:49.194Z,59.00
2022-09-26T15:12:49.289Z,59.00
2022-09-26T15:14:49.312Z,59.00
2022-09-26T15:16:49.224Z,59.00
2022-09-26T15:18:50.431Z,59.00
2022-09-26T15:20:49.343Z,59.00
2022-09-26T15:22:49.208Z,59.00
2022-09-26T15:26:49.235Z,60.00
2022-09-26T15:30:51.070Z,60.00
2022-09-26T15:32:50.988Z,60.00
2022-09-26T15:34:50.970Z,60.00
2022-09-26T15:36:50.912Z,61.00
2022-09-26T15:38:50.974Z,61.00
2022-09-26T15:40:51.003Z,61.00
2022-09-26T15:42:50.997Z,62.00
2022-09-26T15:44:50.972Z,62.00
2022-09-26T15:46:51.247Z,62.00
2022-09-26T15:48:50.952Z,62.00
2022-09-26T15:50:51.014Z,62.00
2022-09-26T15:52:50.936Z,62.00
2022-09-26T15:54:50.944Z,62.00
2022-09-26T15:56:50.952Z,62.00
2022-09-26T15:58:50.973Z,62.00
2022-09-26T16:00:51.029Z,62.00
2022-09-26T16:02:51.117Z,63.00
2022-09-26T16:04:50.985Z,63.00
2022-09-26T16:06:50.917Z,63.00
2022-09-26T16:08:50.957Z,63.00
2022-09-26T16:10:50.959Z,63.00
2022-09-26T16:12:51.011Z,64.00
2022-09-26T16:14:51.111Z,64.00
2022-09-26T16:16:51.032Z,64.00
2022-09-26T16:18:50.943Z,65.00
2022-09-26T16:20:51.056Z,65.00
2022-09-26T16:22:50.980Z,67.00
2022-09-26T16:24:51.006Z,67.00
2022-09-26T16:26:51.027Z,67.00
2022-09-26T16:28:51.038Z,66.00
2022-09-26T16:30:51.081Z,66.00
2022-09-26T16:33:21.034Z,65.00
2022-09-26T16:35:21.781Z,65.00
2022-09-26T16:37:21.047Z,65.00
2022-09-26T16:39:21.204Z,64.00
2022-09-26T16:41:36.205Z,64.00
2022-09-26T16:43:21.016Z,64.00
2022-09-26T16:45:21.040Z,64.00
2022-09-26T16:47:20.992Z,64.00
2022-09-26T16:49:20.955Z,64.00
2022-09-26T16:51:21.089Z,63.00
2022-09-26T16:53:21.973Z,64.00
2022-09-26T16:55:20.928Z,64.00
2022-09-26T16:57:20.972Z,64.00
2022-09-26T16:59:20.963Z,64.00
2022-09-26T17:01:21.006Z,64.00
2022-09-26T17:03:21.129Z,64.00
2022-09-26T17:05:20.939Z,64.00
2022-09-26T17:07:20.986Z,64.00
2022-09-26T17:09:20.933Z,65.00
2022-09-26T17:11:21.039Z,65.00
2022-09-26T17:13:20.980Z,65.00
2022-09-26T17:15:20.981Z,65.00
2022-09-26T17:17:21.065Z,65.00
2022-09-26T17:19:20.975Z,65.00
2022-09-26T17:21:21.069Z,65.00
2022-09-26T17:23:39.294Z,65.00
2022-09-26T17:25:20.998Z,65.00
2022-09-26T17:27:20.960Z,65.00
2022-09-26T17:29:20.981Z,65.00
2022-09-26T17:31:21.363Z,65.00
2022-09-26T17:33:20.980Z,65.00
2022-09-26T17:35:21.072Z,66.00
2022-09-26T17:37:21.381Z,65.00
2022-09-26T17:39:20.983Z,65.00
2022-09-26T17:41:21.021Z,65.00
2022-09-26T17:43:21.029Z,65.00
2022-09-26T17:45:21.058Z,64.00
2022-09-26T17:47:21.161Z,64.00
2022-09-26T17:49:21.075Z,64.00
2022-09-26T17:51:21.088Z,64.00
2022-09-26T17:53:20.987Z,64.00
2022-09-26T17:55:21.022Z,64.00
2022-09-26T17:57:21.066Z,64.00
2022-09-26T17:59:21.070Z,64.00
2022-09-26T18:01:21.449Z,64.00
2022-09-26T18:03:21.161Z,64.00
2022-09-26T18:05:21.162Z,64.00
2022-09-26T18:07:21.125Z,64.00
2022-09-26T18:09:21.055Z,64.00
2022-09-26T18:11:21.056Z,64.00
2022-09-26T18:13:21.360Z,64.00
2022-09-26T18:15:21.087Z,65.00
2022-09-26T18:17:21.114Z,65.00
2022-09-26T18:19:21.152Z,65.00
2022-09-26T18:21:21.152Z,65.00
2022-09-26T18:23:21.170Z,65.00
2022-09-26T18:25:21.052Z,66.00
2022-09-26T18:27:51.084Z,66.00
2022-09-26T18:29:50.990Z,66.00
2022-09-26T18:31:50.992Z,67.00
2022-09-26T18:33:51.303Z,67.00
2022-09-26T18:35:51.008Z,67.00
2022-09-26T18:37:51.141Z,67.00
2022-09-26T18:39:55.133Z,67.00
2022-09-26T18:41:51.032Z,67.00
2022-09-26T18:43:51.068Z,67.00
2022-09-26T18:45:51.141Z,67.00
2022-09-26T18:47:52.117Z,68.00
2022-09-26T18:49:51.194Z,68.00
2022-09-26T18:51:51.168Z,68.00
2022-09-26T18:53:51.108Z,68.00
2022-09-26T18:55:53.778Z,68.00
2022-09-26T18:57:51.055Z,68.00
2022-09-26T18:59:51.048Z,68.00
2022-09-26T19:01:51.212Z,68.00
2022-09-26T19:03:51.060Z,68.00
2022-09-26T19:05:51.086Z,68.00
2022-09-26T19:07:51.004Z,68.00
2022-09-26T19:09:51.105Z,69.00
2022-09-26T19:11:51.060Z,69.00
2022-09-26T19:13:51.117Z,69.00
2022-09-26T19:15:51.155Z,69.00
2022-09-26T19:17:51.128Z,69.00
2022-09-26T19:19:51.165Z,69.00
2022-09-26T19:21:51.149Z,69.00
2022-09-26T19:23:51.106Z,70.00
2022-09-26T19:25:51.040Z,70.00
2022-09-26T19:27:51.019Z,70.00
2022-09-26T19:29:51.076Z,70.00
2022-09-26T19:31:51.034Z,70.00
2022-09-26T19:33:51.149Z,70.00
2022-09-26T19:35:51.219Z,70.00
2022-09-26T19:37:51.267Z,70.00
2022-09-26T19:39:51.103Z,70.00
2022-09-26T19:41:51.075Z,70.00
2022-09-26T19:43:51.111Z,70.00
2022-09-26T19:45:51.184Z,70.00
2022-09-26T19:47:51.073Z,70.00
2022-09-26T19:49:51.217Z,70.00
2022-09-26T19:51:51.175Z,70.00
2022-09-26T19:53:51.027Z,70.00
2022-09-26T19:55:51.114Z,70.00
2022-09-26T19:57:51.071Z,70.00
2022-09-26T19:59:51.081Z,70.00
2022-09-26T20:01:51.146Z,71.00
2022-09-26T20:03:51.105Z,71.00
2022-09-26T20:05:51.174Z,71.00
2022-09-26T20:07:51.209Z,71.00
2022-09-26T20:09:51.109Z,71.00
2022-09-26T20:11:51.075Z,71.00
2022-09-26T20:13:51.112Z,71.00
2022-09-26T20:15:51.146Z,71.00
2022-09-26T20:17:51.118Z,71.00
2022-09-26T20:19:54.012Z,71.00
2022-09-26T20:22:21.099Z,71.00
2022-09-26T20:24:21.215Z,71.00
2022-09-26T20:26:21.077Z,71.00
2022-09-26T20:28:21.077Z,71.00
2022-09-26T20:30:21.103Z,71.00
2022-09-26T20:32:22.199Z,71.00
2022-09-26T20:34:21.089Z,71.00
2022-09-26T20:36:21.107Z,71.00
2022-09-26T20:38:21.120Z,71.00
2022-09-26T20:40:21.161Z,71.00
2022-09-26T20:42:21.102Z,71.00
2022-09-26T20:44:21.123Z,71.00
2022-09-26T20:46:21.224Z,71.00
2022-09-26T20:48:21.213Z,71.00
2022-09-26T20:50:21.193Z,71.00
2022-09-26T20:52:21.093Z,71.00
2022-09-26T20:54:21.194Z,71.00
2022-09-26T20:56:21.262Z,71.00
2022-09-26T20:58:21.163Z,72.00
2022-09-26T21:00:21.190Z,72.00
2022-09-26T21:02:21.281Z,73.00
2022-09-26T21:04:21.127Z,73.00
2022-09-26T21:06:21.226Z,73.00
2022-09-26T21:08:21.206Z,73.00
2022-09-26T21:10:21.098Z,73.00
2022-09-26T21:12:21.105Z,74.00
2022-09-26T21:14:21.157Z,74.00
2022-09-26T21:16:21.223Z,74.00
2022-09-26T21:18:21.157Z,75.00
2022-09-26T21:20:21.274Z,75.00
2022-09-26T21:22:21.141Z,75.00
2022-09-26T21:24:24.977Z,75.00
2022-09-26T21:26:21.268Z,75.00
2022-09-26T21:28:21.146Z,75.00
2022-09-26T21:30:21.120Z,76.00
2022-09-26T21:32:21.122Z,76.00
2022-09-26T21:34:21.280Z,76.00
2022-09-26T21:36:21.436Z,76.00
2022-09-26T21:38:21.233Z,76.00
2022-09-26T21:40:21.306Z,76.00
2022-09-26T21:42:21.161Z,76.00
2022-09-26T21:44:21.121Z,76.00
2022-09-26T21:46:21.309Z,76.00
2022-09-26T21:48:21.276Z,77.00
2022-09-26T21:50:21.264Z,77.00
2022-09-26T21:52:21.308Z,77.00
2022-09-26T21:54:21.188Z,77.00
2022-09-26T21:56:21.202Z,77.00
2022-09-26T21:58:21.162Z,77.00
2022-09-26T22:00:21.218Z,77.00
2022-09-26T22:02:21.301Z,78.00
2022-09-26T22:04:21.258Z,78.00
2022-09-26T22:06:21.224Z,78.00
2022-09-26T22:08:21.400Z,78.00
2022-09-26T22:10:21.290Z,78.00
2022-09-26T22:12:21.294Z,78.00
2022-09-26T22:14:21.293Z,78.00
2022-09-26T22:16:21.265Z,79.00
2022-09-26T22:18:51.335Z,79.00
2022-09-26T22:20:51.166Z,79.00
2022-09-26T22:22:51.207Z,79.00
2022-09-26T22:24:51.322Z,79.00
2022-09-26T22:26:51.176Z,79.00
2022-09-26T22:28:51.261Z,79.00
2022-09-26T22:30:51.238Z,79.00
2022-09-26T22:32:55.533Z,79.00
2022-09-26T22:34:51.163Z,79.00
2022-09-26T22:36:51.339Z,79.00
2022-09-26T22:38:51.276Z,79.00
2022-09-26T22:40:51.315Z,79.00
2022-09-26T22:42:51.190Z,79.00
2022-09-26T22:44:51.288Z,79.00
2022-09-26T22:46:51.236Z,79.00
2022-09-26T22:50:54.462Z,79.00
2022-09-26T22:52:54.442Z,79.00
2022-09-26T22:54:54.371Z,79.00
2022-09-26T22:56:54.376Z,79.00
2022-09-26T22:58:54.396Z,79.00
2022-09-26T23:00:54.454Z,79.00
2022-09-26T23:02:54.449Z,79.00
2022-09-26T23:04:54.390Z,79.00
2022-09-26T23:06:54.448Z,79.00
2022-09-26T23:08:54.434Z,80.00
2022-09-26T23:10:54.383Z,80.00
2022-09-26T23:12:54.390Z,80.00
2022-09-26T23:14:54.428Z,80.00
2022-09-26T23:16:54.521Z,80.00
2022-09-26T23:18:54.407Z,80.00
2022-09-26T23:20:54.387Z,80.00
2022-09-26T23:22:54.404Z,79.00
2022-09-26T23:24:54.424Z,80.00
2022-09-26T23:26:54.406Z,79.00
2022-09-26T23:28:54.407Z,79.00
2022-09-26T23:30:54.504Z,79.00
2022-09-26T23:32:54.466Z,79.00
2022-09-26T23:34:54.462Z,79.00
2022-09-26T23:36:54.411Z,79.00
2022-09-26T23:38:54.433Z,79.00
2022-09-26T23:40:54.450Z,79.00
2022-09-26T23:42:54.408Z,79.00
2022-09-26T23:44:54.527Z,79.00
2022-09-26T23:46:54.447Z,79.00
2022-09-26T23:48:54.471Z,79.00
2022-09-26T23:50:54.422Z,79.00
2022-09-26T23:52:54.435Z,79.00
2022-09-26T23:54:54.469Z,79.00
2022-09-26T23:56:54.463Z,79.00
2022-09-26T23:58:54.480Z,79.00
